Time,TemperatureF,DewpointF,PressureIn,WindDirection,WindDirectionDegrees,WindSpeedMPH,WindSpeedGustMPH,Humidity,HourlyPrecipIn,Conditions,Clouds,dailyrainin,SolarRadiationWatts/m^2,SoftwareType,DateUTC
2013-09-09 00:00:00,66.0,60.0,-100.00,SE,135,4.0,-999.0,79,-99.99,,,-99.99,0.000000,,2013-09-09 04:00:00,
2013-09-09 00:44:00,66.0,60.0,-100.00,SE,135,4.0,-999.0,79,-99.99,,,-99.99,0.000000,,2013-09-09 04:44:00,
2013-09-09 00:54:00,66.0,60.0,-100.00,SE,135,4.0,-999.0,79,-99.99,,,-99.99,0.000000,,2013-09-09 04:54:00,
2013-09-09 01:00:00,65.0,59.0,-100.00,SE,135,5.0,-999.0,80,-99.99,,,-99.99,0.000000,,2013-09-09 05:00:00,
2013-09-09 01:43:00,65.0,59.0,-100.00,SE,135,5.0,-999.0,80,-99.99,,,-99.99,0.000000,,2013-09-09 05:43:00,
2013-09-09 01:53:00,65.0,59.0,-100.00,SE,135,5.0,-999.0,80,-99.99,,,-99.99,0.000000,,2013-09-09 05:53:00,
2013-09-09 03:00:00,64.0,57.0,-100.00,SE,135,4.0,-999.0,77,-99.99,,,-99.99,0.000000,,2013-09-09 07:00:00,
2013-09-09 03:43:00,64.0,57.0,-100.00,SE,135,4.0,-999.0,77,-99.99,,,-99.99,0.000000,,2013-09-09 07:43:00,
2013-09-09 03:52:00,64.0,57.0,-100.00,SE,135,4.0,-999.0,77,-99.99,,,-99.99,0.000000,,2013-09-09 07:52:00,
2013-09-09 04:00:00,63.0,56.0,-100.00,SE,135,3.0,-999.0,75,-99.99,,,-99.99,0.000000,,2013-09-09 08:00:00,
2013-09-09 04:43:00,63.0,56.0,-100.00,SE,135,3.0,-999.0,75,-99.99,,,-99.99,0.000000,,2013-09-09 08:43:00,
2013-09-09 04:52:00,63.0,56.0,-100.00,SE,135,3.0,-999.0,75,-99.99,,,-99.99,0.000000,,2013-09-09 08:52:00,
2013-09-09 05:00:00,63.0,54.0,-100.00,SE,135,4.0,-999.0,72,-99.99,,,-99.99,0.000000,,2013-09-09 09:00:00,
2013-09-09 05:43:00,63.0,54.0,-100.00,SE,135,4.0,-999.0,72,-99.99,,,-99.99,0.000000,,2013-09-09 09:43:00,
2013-09-09 05:54:00,63.0,54.0,-100.00,SE,135,4.0,-999.0,72,-99.99,,,-99.99,0.000000,,2013-09-09 09:54:00,
2013-09-09 06:00:00,63.0,52.0,-100.00,East,90,4.0,-999.0,66,-99.99,,,-99.99,0.000000,,2013-09-09 10:00:00,
2013-09-09 06:43:00,63.0,52.0,-100.00,East,90,4.0,-999.0,66,-99.99,,,-99.99,0.000000,,2013-09-09 10:43:00,
2013-09-09 06:53:00,63.0,52.0,-100.00,East,90,4.0,-999.0,66,-99.99,,,-99.99,0.000000,,2013-09-09 10:53:00,
2013-09-09 07:00:00,63.0,51.0,-100.00,ESE,112,5.0,-999.0,65,-99.99,,,-99.99,0.000000,,2013-09-09 11:00:00,
2013-09-09 07:42:00,63.0,51.0,-100.00,ESE,112,5.0,-999.0,65,-99.99,,,-99.99,0.000000,,2013-09-09 11:42:00,
2013-09-09 07:52:00,63.0,51.0,-100.00,ESE,112,5.0,-999.0,65,-99.99,,,-99.99,0.000000,,2013-09-09 11:52:00,
2013-09-09 08:00:00,63.0,52.0,-100.00,ESE,112,5.0,-999.0,68,-99.99,,,-99.99,8.120000,,2013-09-09 12:00:00,
2013-09-09 08:42:00,63.0,52.0,-100.00,ESE,112,5.0,-999.0,68,-99.99,,,-99.99,8.120000,,2013-09-09 12:42:00,
2013-09-09 08:52:00,63.0,52.0,-100.00,ESE,112,5.0,-999.0,68,-99.99,,,-99.99,8.120000,,2013-09-09 12:52:00,
2013-09-09 09:00:00,62.0,54.0,-100.00,ESE,112,4.0,-999.0,73,-99.99,,,-99.99,46.400002,,2013-09-09 13:00:00,
2013-09-09 09:42:00,62.0,54.0,-100.00,ESE,112,4.0,-999.0,73,-99.99,,,-99.99,46.400002,,2013-09-09 13:42:00,
2013-09-09 09:52:00,62.0,54.0,-100.00,ESE,112,4.0,-999.0,73,-99.99,,,-99.99,46.400002,,2013-09-09 13:52:00,
2013-09-09 10:00:00,65.0,55.0,-100.00,SE,135,5.0,-999.0,71,-99.99,,,-99.99,205.320007,,2013-09-09 14:00:00,
2013-09-09 10:42:00,65.0,55.0,-100.00,SE,135,5.0,-999.0,71,-99.99,,,-99.99,205.320007,,2013-09-09 14:42:00,
2013-09-09 10:52:00,65.0,55.0,-100.00,SE,135,5.0,-999.0,71,-99.99,,,-99.99,205.320007,,2013-09-09 14:52:00,
2013-09-09 12:00:00,71.0,61.0,-100.00,SE,135,5.0,-999.0,70,-99.99,,,-99.99,327.119995,,2013-09-09 16:00:00,
2013-09-09 12:44:00,71.0,61.0,-100.00,SE,135,5.0,-999.0,70,-99.99,,,-99.99,327.119995,,2013-09-09 16:44:00,
2013-09-09 12:54:00,71.0,61.0,-100.00,SE,135,5.0,-999.0,70,-99.99,,,-99.99,327.119995,,2013-09-09 16:54:00,
2013-09-09 14:00:00,83.0,65.0,-100.00,South,180,5.0,-999.0,56,-99.99,,,-99.99,638.000000,,2013-09-09 18:00:00,
2013-09-09 14:42:00,83.0,65.0,-100.00,South,180,5.0,-999.0,56,-99.99,,,-99.99,638.000000,,2013-09-09 18:42:00,
2013-09-09 14:52:00,83.0,65.0,-100.00,South,180,5.0,-999.0,56,-99.99,,,-99.99,638.000000,,2013-09-09 18:52:00,
2013-09-09 15:00:00,86.0,66.0,-100.00,South,180,5.0,-999.0,51,-99.99,,,-99.99,638.000000,,2013-09-09 19:00:00,
2013-09-09 15:43:00,86.0,66.0,-100.00,South,180,5.0,-999.0,51,-99.99,,,-99.99,638.000000,,2013-09-09 19:43:00,
2013-09-09 15:52:00,86.0,66.0,-100.00,South,180,5.0,-999.0,51,-99.99,,,-99.99,638.000000,,2013-09-09 19:52:00,
2013-09-09 16:00:00,88.0,66.0,-100.00,South,180,5.0,-999.0,49,-99.99,,,-99.99,581.159973,,2013-09-09 20:00:00,
2013-09-09 16:42:00,88.0,66.0,-100.00,South,180,5.0,-999.0,49,-99.99,,,-99.99,581.159973,,2013-09-09 20:42:00,
2013-09-09 16:53:00,88.0,66.0,-100.00,South,180,5.0,-999.0,49,-99.99,,,-99.99,581.159973,,2013-09-09 20:53:00,
2013-09-09 17:00:00,90.0,67.0,-100.00,South,180,5.0,-999.0,47,-99.99,,,-99.99,477.920013,,2013-09-09 21:00:00,
2013-09-09 17:44:00,90.0,67.0,-100.00,South,180,5.0,-999.0,47,-99.99,,,-99.99,477.920013,,2013-09-09 21:44:00,
2013-09-09 17:54:00,90.0,67.0,-100.00,South,180,5.0,-999.0,47,-99.99,,,-99.99,477.920013,,2013-09-09 21:54:00,
2013-09-09 18:00:00,90.0,67.0,-100.00,SSW,202,5.0,-999.0,46,-99.99,,,-99.99,335.239990,,2013-09-09 22:00:00,
2013-09-09 18:43:00,90.0,67.0,-100.00,SSW,202,5.0,-999.0,46,-99.99,,,-99.99,335.239990,,2013-09-09 22:43:00,
2013-09-09 18:54:00,90.0,67.0,-100.00,SSW,202,5.0,-999.0,46,-99.99,,,-99.99,335.239990,,2013-09-09 22:54:00,
2013-09-09 19:00:00,89.0,67.0,-100.00,SSW,202,4.0,-999.0,48,-99.99,,,-99.99,180.960007,,2013-09-09 23:00:00,
2013-09-09 19:43:00,89.0,67.0,-100.00,SSW,202,4.0,-999.0,48,-99.99,,,-99.99,180.960007,,2013-09-09 23:43:00,
2013-09-09 19:52:00,89.0,67.0,-100.00,SSW,202,4.0,-999.0,48,-99.99,,,-99.99,180.960007,,2013-09-09 23:52:00,
2013-09-09 20:00:00,86.0,68.0,-100.00,SSW,202,3.0,-999.0,56,-99.99,,,-99.99,45.240002,,2013-09-10 00:00:00,
2013-09-09 20:42:00,86.0,68.0,-100.00,SSW,202,3.0,-999.0,56,-99.99,,,-99.99,45.240002,,2013-09-10 00:42:00,
2013-09-09 20:52:00,86.0,68.0,-100.00,SSW,202,3.0,-999.0,56,-99.99,,,-99.99,45.240002,,2013-09-10 00:52:00,
2013-09-09 21:00:00,83.0,69.0,-100.00,SSW,202,3.0,-999.0,62,-99.99,,,-99.99,1.160000,,2013-09-10 01:00:00,
2013-09-09 21:42:00,83.0,69.0,-100.00,SSW,202,3.0,-999.0,62,-99.99,,,-99.99,1.160000,,2013-09-10 01:42:00,
2013-09-09 21:53:00,83.0,69.0,-100.00,SSW,202,3.0,-999.0,62,-99.99,,,-99.99,1.160000,,2013-09-10 01:53:00,
2013-09-09 23:00:00,81.0,69.0,-100.00,SSW,202,5.0,-999.0,67,-99.99,,,-99.99,0.000000,,2013-09-10 03:00:00,
2013-09-09 23:44:00,81.0,69.0,-100.00,SSW,202,5.0,-999.0,67,-99.99,,,-99.99,0.000000,,2013-09-10 03:44:00,
2013-09-09 23:55:00,81.0,69.0,-100.00,SSW,202,5.0,-999.0,67,-99.99,,,-99.99,0.000000,,2013-09-10 03:55:00,